sensor_id;sensor_type;location;lat;lon;timestamp;pressure;altitude;pressure_sealevel;temperature;humidity
77124;BME280;66079;47.646;19.130;2023-04-24T00:01:26;99654.25;;;12.38;55.36
77124;BME280;66079;47.646;19.130;2023-04-24T00:04:29;99654.91;;;12.45;54.97
77124;BME280;66079;47.646;19.130;2023-04-24T00:07:33;99643.63;;;12.40;55.18
77124;BME280;66079;47.646;19.130;2023-04-24T00:10:36;99639.66;;;12.26;55.74
77124;BME280;66079;47.646;19.130;2023-04-24T00:13:39;99650.88;;;12.38;55.62
77124;BME280;66079;47.646;19.130;2023-04-24T00:16:42;99638.16;;;12.41;55.69
77124;BME280;66079;47.646;19.130;2023-04-24T00:19:44;99644.13;;;12.53;55.04
77124;BME280;66079;47.646;19.130;2023-04-24T00:22:46;99626.13;;;12.52;55.40
77124;BME280;66079;47.646;19.130;2023-04-24T00:25:49;99643.00;;;12.61;55.38
77124;BME280;66079;47.646;19.130;2023-04-24T00:28:51;99638.53;;;12.61;55.09
77124;BME280;66079;47.646;19.130;2023-04-24T00:31:55;99644.56;;;12.62;54.70
77124;BME280;66079;47.646;19.130;2023-04-24T00:34:57;99639.91;;;12.64;55.01
77124;BME280;66079;47.646;19.130;2023-04-24T00:38:00;99655.00;;;12.62;55.69
77124;BME280;66079;47.646;19.130;2023-04-24T00:41:02;99642.22;;;12.49;55.94
77124;BME280;66079;47.646;19.130;2023-04-24T00:44:05;99643.66;;;12.56;55.67
77124;BME280;66079;47.646;19.130;2023-04-24T00:47:08;99639.69;;;12.65;56.05
77124;BME280;66079;47.646;19.130;2023-04-24T00:50:10;99628.25;;;12.55;56.32
77124;BME280;66079;47.646;19.130;2023-04-24T00:53:15;99622.25;;;12.54;55.94
77124;BME280;66079;47.646;19.130;2023-04-24T00:56:18;99637.31;;;12.64;56.15
77124;BME280;66079;47.646;19.130;2023-04-24T00:59:21;99626.13;;;12.52;56.18
77124;BME280;66079;47.646;19.130;2023-04-24T01:02:24;99619.66;;;12.54;56.41
77124;BME280;66079;47.646;19.130;2023-04-24T01:05:27;99649.84;;;12.78;56.28
77124;BME280;66079;47.646;19.130;2023-04-24T01:08:30;99635.88;;;12.45;56.47
77124;BME280;66079;47.646;19.130;2023-04-24T01:11:34;99636.44;;;12.47;56.60
77124;BME280;66079;47.646;19.130;2023-04-24T01:14:37;99641.06;;;12.56;56.22
77124;BME280;66079;47.646;19.130;2023-04-24T01:17:40;99634.72;;;12.52;56.71
77124;BME280;66079;47.646;19.130;2023-04-24T01:20:44;99631.44;;;12.57;56.75
77124;BME280;66079;47.646;19.130;2023-04-24T01:23:47;99620.66;;;12.53;56.71
77124;BME280;66079;47.646;19.130;2023-04-24T01:26:52;99639.22;;;12.68;56.68
77124;BME280;66079;47.646;19.130;2023-04-24T01:29:55;99620.63;;;12.65;56.30
77124;BME280;66079;47.646;19.130;2023-04-24T01:32:58;99633.94;;;12.80;56.55
77124;BME280;66079;47.646;19.130;2023-04-24T01:36:01;99629.44;;;12.75;57.14
77124;BME280;66079;47.646;19.130;2023-04-24T01:39:05;99612.91;;;12.70;56.66
77124;BME280;66079;47.646;19.130;2023-04-24T01:42:08;99607.25;;;12.61;57.09
77124;BME280;66079;47.646;19.130;2023-04-24T01:45:11;99605.53;;;12.67;56.89
77124;BME280;66079;47.646;19.130;2023-04-24T01:48:15;99606.50;;;12.61;57.71
77124;BME280;66079;47.646;19.130;2023-04-24T01:51:17;99608.66;;;12.52;57.71
77124;BME280;66079;47.646;19.130;2023-04-24T01:54:20;99620.66;;;12.53;57.75
77124;BME280;66079;47.646;19.130;2023-04-24T01:57:22;99606.09;;;12.41;58.01
77124;BME280;66079;47.646;19.130;2023-04-24T02:00:25;99614.88;;;12.51;57.88
77124;BME280;66079;47.646;19.130;2023-04-24T02:03:28;99609.47;;;12.53;57.82
77124;BME280;66079;47.646;19.130;2023-04-24T02:06:33;99604.78;;;12.55;57.88
77124;BME280;66079;47.646;19.130;2023-04-24T02:09:36;99586.88;;;12.58;57.82
77124;BME280;66079;47.646;19.130;2023-04-24T02:12:39;99569.13;;;12.44;58.16
77124;BME280;66079;47.646;19.130;2023-04-24T02:15:41;99567.44;;;12.49;57.92
77124;BME280;66079;47.646;19.130;2023-04-24T02:18:44;99560.69;;;12.53;59.94
77124;BME280;66079;47.646;19.130;2023-04-24T02:21:47;99565.34;;;12.51;64.01
77124;BME280;66079;47.646;19.130;2023-04-24T02:24:49;99562.59;;;12.41;60.98
77124;BME280;66079;47.646;19.130;2023-04-24T02:27:52;99563.41;;;12.30;65.11
77124;BME280;66079;47.646;19.130;2023-04-24T02:30:54;99524.38;;;12.07;66.94
77124;BME280;66079;47.646;19.130;2023-04-24T02:33:58;99549.75;;;12.12;69.88
77124;BME280;66079;47.646;19.130;2023-04-24T02:37:00;99546.47;;;12.16;68.62
77124;BME280;66079;47.646;19.130;2023-04-24T02:40:03;99554.06;;;12.06;69.80
77124;BME280;66079;47.646;19.130;2023-04-24T02:43:07;99558.28;;;11.95;69.97
77124;BME280;66079;47.646;19.130;2023-04-24T02:46:09;99548.44;;;11.86;68.45
77124;BME280;66079;47.646;19.130;2023-04-24T02:49:12;99541.19;;;11.88;69.12
77124;BME280;66079;47.646;19.130;2023-04-24T02:52:15;99534.84;;;11.84;69.92
77124;BME280;66079;47.646;19.130;2023-04-24T02:55:19;99538.25;;;11.84;70.50
77124;BME280;66079;47.646;19.130;2023-04-24T02:58:21;99532.94;;;11.91;67.62
77124;BME280;66079;47.646;19.130;2023-04-24T03:01:24;99531.13;;;11.91;68.68
77124;BME280;66079;47.646;19.130;2023-04-24T03:04:28;99527.94;;;11.89;68.36
77124;BME280;66079;47.646;19.130;2023-04-24T03:07:30;99525.78;;;11.98;69.09
77124;BME280;66079;47.646;19.130;2023-04-24T03:10:34;99536.88;;;12.05;67.71
77124;BME280;66079;47.646;19.130;2023-04-24T03:13:37;99520.56;;;11.98;67.51
77124;BME280;66079;47.646;19.130;2023-04-24T03:16:39;99519.22;;;11.95;68.40
77124;BME280;66079;47.646;19.130;2023-04-24T03:19:42;99546.97;;;12.01;69.32
77124;BME280;66079;47.646;19.130;2023-04-24T03:22:47;99552.50;;;12.05;68.38
77124;BME280;66079;47.646;19.130;2023-04-24T03:25:49;99535.28;;;12.04;66.95
77124;BME280;66079;47.646;19.130;2023-04-24T03:28:54;99536.41;;;12.08;68.09
77124;BME280;66079;47.646;19.130;2023-04-24T03:31:58;99517.50;;;12.01;68.53
77124;BME280;66079;47.646;19.130;2023-04-24T03:35:01;99507.66;;;12.03;68.42
77124;BME280;66079;47.646;19.130;2023-04-24T03:38:04;99533.00;;;12.07;68.36
77124;BME280;66079;47.646;19.130;2023-04-24T03:41:29;99520.44;;;12.04;68.51
77124;BME280;66079;47.646;19.130;2023-04-24T03:44:52;99530.88;;;12.04;67.06
77124;BME280;66079;47.646;19.130;2023-04-24T03:47:59;99528.38;;;11.98;67.28
77124;BME280;66079;47.646;19.130;2023-04-24T03:51:02;99531.78;;;11.98;69.43
77124;BME280;66079;47.646;19.130;2023-04-24T03:54:06;99528.84;;;11.95;67.74
77124;BME280;66079;47.646;19.130;2023-04-24T03:57:11;99508.50;;;11.92;67.80
77124;BME280;66079;47.646;19.130;2023-04-24T04:00:22;99529.16;;;12.10;67.92
77124;BME280;66079;47.646;19.130;2023-04-24T04:03:37;99515.66;;;12.13;68.82
77124;BME280;66079;47.646;19.130;2023-04-24T04:06:40;99522.06;;;12.22;68.38
77124;BME280;66079;47.646;19.130;2023-04-24T04:09:43;99529.94;;;12.39;69.21
77124;BME280;66079;47.646;19.130;2023-04-24T04:12:46;99523.81;;;12.17;68.52
77124;BME280;66079;47.646;19.130;2023-04-24T04:15:49;99539.19;;;12.30;68.63
77124;BME280;66079;47.646;19.130;2023-04-24T04:18:52;99530.59;;;12.18;69.18
77124;BME280;66079;47.646;19.130;2023-04-24T04:21:55;99524.81;;;12.16;70.71
77124;BME280;66079;47.646;19.130;2023-04-24T04:25:19;99535.41;;;12.37;68.73
77124;BME280;66079;47.646;19.130;2023-04-24T04:28:22;99538.47;;;12.34;69.62
77124;BME280;66079;47.646;19.130;2023-04-24T04:31:24;99521.16;;;12.28;69.99
77124;BME280;66079;47.646;19.130;2023-04-24T04:34:27;99524.50;;;12.40;69.52
77124;BME280;66079;47.646;19.130;2023-04-24T04:37:32;99513.59;;;12.43;68.23
77124;BME280;66079;47.646;19.130;2023-04-24T04:40:49;99517.91;;;12.49;68.73
77124;BME280;66079;47.646;19.130;2023-04-24T04:43:53;99511.19;;;12.53;68.45
77124;BME280;66079;47.646;19.130;2023-04-24T04:46:56;99515.78;;;12.63;67.98
77124;BME280;66079;47.646;19.130;2023-04-24T04:50:05;99506.94;;;12.64;67.41
77124;BME280;66079;47.646;19.130;2023-04-24T04:53:08;99502.72;;;12.63;68.35
77124;BME280;66079;47.646;19.130;2023-04-24T04:56:13;99492.31;;;12.63;67.77
77124;BME280;66079;47.646;19.130;2023-04-24T04:59:18;99510.56;;;12.79;66.80
77124;BME280;66079;47.646;19.130;2023-04-24T05:02:22;99515.63;;;12.86;67.24
77124;BME280;66079;47.646;19.130;2023-04-24T05:05:24;99522.59;;;12.80;66.38
77124;BME280;66079;47.646;19.130;2023-04-24T05:08:27;99514.94;;;12.90;66.64
77124;BME280;66079;47.646;19.130;2023-04-24T05:11:30;99502.88;;;13.01;65.89
77124;BME280;66079;47.646;19.130;2023-04-24T05:14:35;99512.41;;;13.28;65.45
77124;BME280;66079;47.646;19.130;2023-04-24T05:17:38;99507.75;;;13.30;64.91
77124;BME280;66079;47.646;19.130;2023-04-24T05:20:42;99493.28;;;13.40;64.71
77124;BME280;66079;47.646;19.130;2023-04-24T05:23:46;99495.72;;;13.46;64.01
77124;BME280;66079;47.646;19.130;2023-04-24T05:26:55;99509.25;;;13.65;63.88
77124;BME280;66079;47.646;19.130;2023-04-24T05:30:03;99502.25;;;13.49;63.94
77124;BME280;66079;47.646;19.130;2023-04-24T05:33:06;99495.06;;;13.56;64.18
77124;BME280;66079;47.646;19.130;2023-04-24T05:36:10;99511.81;;;13.81;63.38
77124;BME280;66079;47.646;19.130;2023-04-24T05:39:12;99515.03;;;13.88;63.18
77124;BME280;66079;47.646;19.130;2023-04-24T05:42:15;99510.25;;;14.02;62.19
77124;BME280;66079;47.646;19.130;2023-04-24T05:45:17;99497.75;;;14.04;61.79
77124;BME280;66079;47.646;19.130;2023-04-24T05:48:20;99514.91;;;14.21;61.29
77124;BME280;66079;47.646;19.130;2023-04-24T05:51:24;99498.56;;;14.09;62.03
77124;BME280;66079;47.646;19.130;2023-04-24T05:54:28;99510.19;;;14.18;61.75
77124;BME280;66079;47.646;19.130;2023-04-24T05:57:31;99516.41;;;14.17;61.87
77124;BME280;66079;47.646;19.130;2023-04-24T06:00:38;99516.56;;;14.27;60.36
77124;BME280;66079;47.646;19.130;2023-04-24T06:03:43;99508.53;;;14.34;61.17
77124;BME280;66079;47.646;19.130;2023-04-24T06:06:46;99517.56;;;14.48;61.65
77124;BME280;66079;47.646;19.130;2023-04-24T06:09:53;99504.16;;;14.39;61.86
77124;BME280;66079;47.646;19.130;2023-04-24T06:12:56;99505.13;;;14.60;60.54
77124;BME280;66079;47.646;19.130;2023-04-24T06:16:04;99512.97;;;14.60;60.24
77124;BME280;66079;47.646;19.130;2023-04-24T06:19:11;99509.09;;;14.99;59.78
77124;BME280;66079;47.646;19.130;2023-04-24T06:22:14;99517.63;;;15.16;59.19
77124;BME280;66079;47.646;19.130;2023-04-24T06:25:17;99506.72;;;15.29;57.90
77124;BME280;66079;47.646;19.130;2023-04-24T06:28:20;99514.56;;;15.29;57.94
77124;BME280;66079;47.646;19.130;2023-04-24T06:31:23;99519.31;;;15.37;57.58
77124;BME280;66079;47.646;19.130;2023-04-24T06:34:25;99514.25;;;15.57;56.39
77124;BME280;66079;47.646;19.130;2023-04-24T06:37:28;99516.09;;;15.62;56.08
77124;BME280;66079;47.646;19.130;2023-04-24T06:40:31;99525.09;;;15.76;56.87
77124;BME280;66079;47.646;19.130;2023-04-24T06:43:34;99519.53;;;15.67;56.86
77124;BME280;66079;47.646;19.130;2023-04-24T06:46:36;99508.22;;;15.62;57.56
77124;BME280;66079;47.646;19.130;2023-04-24T06:49:42;99501.22;;;15.72;57.90
77124;BME280;66079;47.646;19.130;2023-04-24T06:52:45;99521.19;;;15.88;58.14
77124;BME280;66079;47.646;19.130;2023-04-24T06:55:48;99521.94;;;15.79;57.61
77124;BME280;66079;47.646;19.130;2023-04-24T06:58:51;99514.94;;;15.99;56.29
77124;BME280;66079;47.646;19.130;2023-04-24T07:01:54;99522.06;;;16.14;55.76
77124;BME280;66079;47.646;19.130;2023-04-24T07:04:57;99517.34;;;16.11;55.01
77124;BME280;66079;47.646;19.130;2023-04-24T07:08:00;99526.75;;;16.02;55.57
77124;BME280;66079;47.646;19.130;2023-04-24T07:11:03;99529.13;;;16.04;55.56
77124;BME280;66079;47.646;19.130;2023-04-24T07:14:06;99534.97;;;16.31;55.09
77124;BME280;66079;47.646;19.130;2023-04-24T07:17:08;99520.75;;;16.12;55.64
77124;BME280;66079;47.646;19.130;2023-04-24T07:20:11;99506.50;;;15.82;56.52
77124;BME280;66079;47.646;19.130;2023-04-24T07:23:13;99515.56;;;15.65;57.47
77124;BME280;66079;47.646;19.130;2023-04-24T07:26:16;99506.53;;;15.92;56.57
77124;BME280;66079;47.646;19.130;2023-04-24T07:29:19;99508.97;;;16.14;56.12
77124;BME280;66079;47.646;19.130;2023-04-24T07:32:22;99491.97;;;16.32;55.73
77124;BME280;66079;47.646;19.130;2023-04-24T07:35:25;99509.88;;;16.50;55.16
77124;BME280;66079;47.646;19.130;2023-04-24T07:38:29;99511.75;;;16.79;55.29
77124;BME280;66079;47.646;19.130;2023-04-24T07:41:32;99515.13;;;17.10;54.40
77124;BME280;66079;47.646;19.130;2023-04-24T07:44:34;99531.41;;;16.77;55.05
77124;BME280;66079;47.646;19.130;2023-04-24T07:47:38;99514.63;;;16.68;55.35
77124;BME280;66079;47.646;19.130;2023-04-24T07:50:43;99519.34;;;16.76;56.05
77124;BME280;66079;47.646;19.130;2023-04-24T07:53:46;99528.78;;;16.97;55.13
77124;BME280;66079;47.646;19.130;2023-04-24T07:56:49;99502.00;;;16.75;54.54
77124;BME280;66079;47.646;19.130;2023-04-24T07:59:51;99487.31;;;16.94;55.11
77124;BME280;66079;47.646;19.130;2023-04-24T08:02:54;99495.72;;;17.01;54.40
77124;BME280;66079;47.646;19.130;2023-04-24T08:05:57;99511.47;;;16.91;55.71
77124;BME280;66079;47.646;19.130;2023-04-24T08:09:00;99509.09;;;17.04;55.60
77124;BME280;66079;47.646;19.130;2023-04-24T08:12:02;99489.41;;;16.92;55.79
77124;BME280;66079;47.646;19.130;2023-04-24T08:15:05;99497.28;;;16.67;56.50
77124;BME280;66079;47.646;19.130;2023-04-24T08:18:08;99509.13;;;16.89;56.64
77124;BME280;66079;47.646;19.130;2023-04-24T08:21:11;99508.06;;;17.10;56.27
77124;BME280;66079;47.646;19.130;2023-04-24T08:24:15;99489.41;;;16.77;56.67
77124;BME280;66079;47.646;19.130;2023-04-24T08:27:17;99503.06;;;16.84;57.94
77124;BME280;66079;47.646;19.130;2023-04-24T08:30:20;99493.59;;;17.08;57.27
77124;BME280;66079;47.646;19.130;2023-04-24T08:33:23;99499.91;;;17.12;57.14
77124;BME280;66079;47.646;19.130;2023-04-24T08:36:26;99512.50;;;16.75;58.29
77124;BME280;66079;47.646;19.130;2023-04-24T08:39:45;99512.00;;;16.83;57.56
77124;BME280;66079;47.646;19.130;2023-04-24T08:42:47;99511.44;;;17.26;56.65
77124;BME280;66079;47.646;19.130;2023-04-24T08:45:54;99500.72;;;16.82;58.10
77124;BME280;66079;47.646;19.130;2023-04-24T08:48:59;99481.50;;;17.17;57.43
77124;BME280;66079;47.646;19.130;2023-04-24T08:52:02;99489.28;;;17.72;56.16
77124;BME280;66079;47.646;19.130;2023-04-24T08:55:05;99503.47;;;17.71;55.07
77124;BME280;66079;47.646;19.130;2023-04-24T08:58:08;99490.44;;;17.11;57.03
77124;BME280;66079;47.646;19.130;2023-04-24T09:01:10;99512.16;;;17.72;55.63
77124;BME280;66079;47.646;19.130;2023-04-24T09:10:25;99478.84;;;18.11;54.74
77124;BME280;66079;47.646;19.130;2023-04-24T09:13:28;99473.09;;;18.47;53.94
77124;BME280;66079;47.646;19.130;2023-04-24T09:16:32;99462.13;;;18.35;53.64
77124;BME280;66079;47.646;19.130;2023-04-24T09:19:44;99455.91;;;18.16;54.25
77124;BME280;66079;47.646;19.130;2023-04-24T09:22:47;99478.72;;;18.26;54.24
77124;BME280;66079;47.646;19.130;2023-04-24T09:25:54;99482.47;;;18.64;53.93
77124;BME280;66079;47.646;19.130;2023-04-24T09:28:59;99482.47;;;18.64;53.72
77124;BME280;66079;47.646;19.130;2023-04-24T09:32:18;99471.31;;;19.05;52.37
77124;BME280;66079;47.646;19.130;2023-04-24T09:35:24;99468.59;;;18.87;51.92
77124;BME280;66079;47.646;19.130;2023-04-24T09:38:35;99450.06;;;19.49;50.89
77124;BME280;66079;47.646;19.130;2023-04-24T09:41:49;99455.28;;;19.96;49.37
77124;BME280;66079;47.646;19.130;2023-04-24T09:44:52;99457.34;;;19.99;49.89
77124;BME280;66079;47.646;19.130;2023-04-24T09:48:09;99464.25;;;19.95;48.84
77124;BME280;66079;47.646;19.130;2023-04-24T09:51:13;99448.34;;;20.00;48.07
77124;BME280;66079;47.646;19.130;2023-04-24T09:54:19;99445.16;;;20.40;47.35
77124;BME280;66079;47.646;19.130;2023-04-24T09:57:24;99452.72;;;20.47;45.84
77124;BME280;66079;47.646;19.130;2023-04-24T10:00:30;99436.00;;;19.96;44.41
77124;BME280;66079;47.646;19.130;2023-04-24T10:03:33;99446.97;;;20.26;43.71
77124;BME280;66079;47.646;19.130;2023-04-24T10:06:37;99424.47;;;20.47;42.94
77124;BME280;66079;47.646;19.130;2023-04-24T10:09:40;99435.88;;;20.43;42.34
77124;BME280;66079;47.646;19.130;2023-04-24T10:12:44;99459.09;;;20.27;42.51
77124;BME280;66079;47.646;19.130;2023-04-24T10:15:47;99451.75;;;20.24;42.44
77124;BME280;66079;47.646;19.130;2023-04-24T10:18:51;99439.81;;;20.08;43.94
77124;BME280;66079;47.646;19.130;2023-04-24T10:21:54;99440.28;;;20.79;42.80
77124;BME280;66079;47.646;19.130;2023-04-24T10:24:59;99437.72;;;21.88;41.31
77124;BME280;66079;47.646;19.130;2023-04-24T10:28:02;99424.22;;;21.22;41.25
77124;BME280;66079;47.646;19.130;2023-04-24T10:31:05;99434.31;;;20.42;43.61
77124;BME280;66079;47.646;19.130;2023-04-24T10:34:09;99430.72;;;20.19;44.54
77124;BME280;66079;47.646;19.130;2023-04-24T10:37:12;99429.97;;;20.32;44.41
77124;BME280;66079;47.646;19.130;2023-04-24T10:40:18;99421.78;;;20.15;44.01
77124;BME280;66079;47.646;19.130;2023-04-24T10:43:21;99424.69;;;19.76;44.22
77124;BME280;66079;47.646;19.130;2023-04-24T10:46:29;99429.38;;;20.54;42.74
77124;BME280;66079;47.646;19.130;2023-04-24T10:49:32;99422.84;;;20.65;42.72
77124;BME280;66079;47.646;19.130;2023-04-24T10:52:49;99434.69;;;20.35;43.66
77124;BME280;66079;47.646;19.130;2023-04-24T10:55:59;99409.09;;;20.49;43.29
77124;BME280;66079;47.646;19.130;2023-04-24T10:59:07;99422.88;;;20.78;43.18
77124;BME280;66079;47.646;19.130;2023-04-24T11:02:14;99428.44;;;20.63;44.14
77124;BME280;66079;47.646;19.130;2023-04-24T11:05:21;99423.13;;;20.31;44.41
77124;BME280;66079;47.646;19.130;2023-04-24T11:08:37;99420.94;;;19.59;46.44
77124;BME280;66079;47.646;19.130;2023-04-24T11:11:45;99427.69;;;19.46;47.25
77124;BME280;66079;47.646;19.130;2023-04-24T11:18:01;99426.59;;;19.71;46.75
77124;BME280;66079;47.646;19.130;2023-04-24T11:21:16;99419.78;;;19.46;47.43
77124;BME280;66079;47.646;19.130;2023-04-24T11:27:43;99421.81;;;19.31;48.37
77124;BME280;66079;47.646;19.130;2023-04-24T11:30:47;99425.50;;;19.30;48.77
77124;BME280;66079;47.646;19.130;2023-04-24T11:33:50;99417.03;;;19.33;48.97
77124;BME280;66079;47.646;19.130;2023-04-24T11:36:53;99407.09;;;19.01;49.31
77124;BME280;66079;47.646;19.130;2023-04-24T11:39:57;99417.31;;;18.50;51.88
77124;BME280;66079;47.646;19.130;2023-04-24T11:43:03;99411.97;;;18.55;53.84
77124;BME280;66079;47.646;19.130;2023-04-24T11:46:09;99413.69;;;18.99;52.84
77124;BME280;66079;47.646;19.130;2023-04-24T11:49:12;99403.31;;;19.36;51.44
77124;BME280;66079;47.646;19.130;2023-04-24T11:52:15;99402.97;;;19.61;50.43
77124;BME280;66079;47.646;19.130;2023-04-24T11:58:23;99402.16;;;19.18;50.56
77124;BME280;66079;47.646;19.130;2023-04-24T12:01:26;99382.19;;;18.89;50.37
77124;BME280;66079;47.646;19.130;2023-04-24T12:04:38;99386.50;;;19.03;50.43
77124;BME280;66079;47.646;19.130;2023-04-24T12:07:42;99389.94;;;19.04;50.78
77124;BME280;66079;47.646;19.130;2023-04-24T12:10:51;99388.63;;;19.72;49.45
77124;BME280;66079;47.646;19.130;2023-04-24T12:13:54;99369.34;;;20.09;47.42
77124;BME280;66079;47.646;19.130;2023-04-24T12:16:56;99368.06;;;20.25;47.41
77124;BME280;66079;47.646;19.130;2023-04-24T12:20:04;99369.41;;;20.04;47.52
77124;BME280;66079;47.646;19.130;2023-04-24T12:23:07;99352.97;;;19.74;48.68
77124;BME280;66079;47.646;19.130;2023-04-24T12:26:10;99354.84;;;19.55;50.02
77124;BME280;66079;47.646;19.130;2023-04-24T12:29:19;99345.75;;;19.43;50.03
77124;BME280;66079;47.646;19.130;2023-04-24T12:32:22;99342.75;;;19.31;50.60
77124;BME280;66079;47.646;19.130;2023-04-24T12:35:31;99330.66;;;19.06;50.85
77124;BME280;66079;47.646;19.130;2023-04-24T12:38:39;99327.28;;;19.01;51.40
77124;BME280;66079;47.646;19.130;2023-04-24T12:48:07;99339.16;;;18.46;57.18
77124;BME280;66079;47.646;19.130;2023-04-24T12:57:26;99325.19;;;17.29;62.02
77124;BME280;66079;47.646;19.130;2023-04-24T13:12:10;65738.94;;;-140.75;100.00
77124;BME280;66079;47.646;19.130;2023-04-24T13:22:29;65738.94;;;-140.75;100.00
77124;BME280;66079;47.646;19.130;2023-04-24T13:30:10;65738.94;;;-140.75;100.00
77124;BME280;66079;47.646;19.130;2023-04-24T13:33:14;65738.94;;;-140.75;100.00
77124;BME280;66079;47.646;19.130;2023-04-24T13:36:17;65738.94;;;-140.75;100.00
77124;BME280;66079;47.646;19.130;2023-04-24T13:39:52;65738.94;;;-140.75;100.00
77124;BME280;66079;47.646;19.130;2023-04-24T13:42:55;65738.94;;;-140.75;100.00
77124;BME280;66079;47.646;19.130;2023-04-24T13:45:58;65738.94;;;-140.75;100.00
77124;BME280;66079;47.646;19.130;2023-04-24T13:49:02;65738.94;;;-140.75;100.00
77124;BME280;66079;47.646;19.130;2023-04-24T13:52:06;65738.94;;;-140.75;100.00
77124;BME280;66079;47.646;19.130;2023-04-24T13:55:09;65738.94;;;-140.75;100.00
77124;BME280;66079;47.646;19.130;2023-04-24T13:58:12;65738.94;;;-140.75;100.00
77124;BME280;66079;47.646;19.130;2023-04-24T14:01:15;65738.94;;;-140.75;100.00
77124;BME280;66079;47.646;19.130;2023-04-24T14:04:18;65738.94;;;-140.75;100.00
77124;BME280;66079;47.646;19.130;2023-04-24T14:07:21;65738.94;;;-140.75;100.00
77124;BME280;66079;47.646;19.130;2023-04-24T14:10:23;65738.94;;;-140.75;100.00
77124;BME280;66079;47.646;19.130;2023-04-24T14:13:26;65738.94;;;-140.75;100.00
77124;BME280;66079;47.646;19.130;2023-04-24T14:16:29;65738.94;;;-140.75;100.00
77124;BME280;66079;47.646;19.130;2023-04-24T14:19:33;65738.94;;;-140.75;100.00
77124;BME280;66079;47.646;19.130;2023-04-24T14:22:36;65738.94;;;-140.75;100.00
77124;BME280;66079;47.646;19.130;2023-04-24T14:25:38;65738.94;;;-140.75;100.00
77124;BME280;66079;47.646;19.130;2023-04-24T14:28:41;65738.94;;;-140.75;100.00
77124;BME280;66079;47.646;19.130;2023-04-24T14:31:44;65738.94;;;-140.75;100.00
77124;BME280;66079;47.646;19.130;2023-04-24T14:34:47;65738.94;;;-140.75;100.00
77124;BME280;66079;47.646;19.130;2023-04-24T14:37:49;65738.94;;;-140.75;100.00
77124;BME280;66079;47.646;19.130;2023-04-24T14:40:52;65738.94;;;-140.75;100.00
77124;BME280;66079;47.646;19.130;2023-04-24T14:43:58;65738.94;;;-140.75;100.00
77124;BME280;66079;47.646;19.130;2023-04-24T14:47:00;65738.94;;;-140.75;100.00
77124;BME280;66079;47.646;19.130;2023-04-24T14:50:03;65738.94;;;-140.75;100.00
77124;BME280;66079;47.646;19.130;2023-04-24T14:53:06;65738.94;;;-140.75;100.00
77124;BME280;66079;47.646;19.130;2023-04-24T14:56:09;65738.94;;;-140.75;100.00
77124;BME280;66079;47.646;19.130;2023-04-24T14:59:12;65738.94;;;-140.75;100.00
77124;BME280;66079;47.646;19.130;2023-04-24T15:02:15;65738.94;;;-140.75;100.00
77124;BME280;66079;47.646;19.130;2023-04-24T15:05:20;65738.94;;;-140.75;100.00
77124;BME280;66079;47.646;19.130;2023-04-24T15:08:24;65738.94;;;-140.75;100.00
77124;BME280;66079;47.646;19.130;2023-04-24T15:11:27;65738.94;;;-140.75;100.00
77124;BME280;66079;47.646;19.130;2023-04-24T15:14:29;65738.94;;;-140.75;100.00
77124;BME280;66079;47.646;19.130;2023-04-24T15:17:32;65738.94;;;-140.75;100.00
77124;BME280;66079;47.646;19.130;2023-04-24T15:20:35;65738.94;;;-140.75;100.00
77124;BME280;66079;47.646;19.130;2023-04-24T15:23:40;65738.94;;;-140.75;100.00
77124;BME280;66079;47.646;19.130;2023-04-24T15:26:42;65738.94;;;-140.75;100.00
77124;BME280;66079;47.646;19.130;2023-04-24T15:29:45;65738.94;;;-140.75;100.00
77124;BME280;66079;47.646;19.130;2023-04-24T15:32:47;65738.94;;;-140.75;100.00
77124;BME280;66079;47.646;19.130;2023-04-24T15:35:50;65738.94;;;-140.75;100.00
77124;BME280;66079;47.646;19.130;2023-04-24T15:38:53;65738.94;;;-140.75;100.00
77124;BME280;66079;47.646;19.130;2023-04-24T15:41:56;65738.94;;;-140.75;100.00
77124;BME280;66079;47.646;19.130;2023-04-24T15:44:59;65738.94;;;-140.75;100.00
77124;BME280;66079;47.646;19.130;2023-04-24T15:48:01;65738.94;;;-140.75;100.00
77124;BME280;66079;47.646;19.130;2023-04-24T15:51:04;65738.94;;;-140.75;100.00
77124;BME280;66079;47.646;19.130;2023-04-24T15:54:07;65738.94;;;-140.75;100.00
77124;BME280;66079;47.646;19.130;2023-04-24T15:57:09;65738.94;;;-140.75;100.00
77124;BME280;66079;47.646;19.130;2023-04-24T16:00:12;65738.94;;;-140.75;100.00
77124;BME280;66079;47.646;19.130;2023-04-24T16:03:15;65738.94;;;-140.75;100.00
77124;BME280;66079;47.646;19.130;2023-04-24T16:06:18;65738.94;;;-140.75;100.00
77124;BME280;66079;47.646;19.130;2023-04-24T16:09:22;65738.94;;;-140.75;100.00
77124;BME280;66079;47.646;19.130;2023-04-24T16:12:24;65738.94;;;-140.75;100.00
77124;BME280;66079;47.646;19.130;2023-04-24T16:15:30;65738.94;;;-140.75;100.00
77124;BME280;66079;47.646;19.130;2023-04-24T16:18:32;65738.94;;;-140.75;100.00
77124;BME280;66079;47.646;19.130;2023-04-24T16:21:35;65738.94;;;-140.75;100.00
77124;BME280;66079;47.646;19.130;2023-04-24T16:24:37;65738.94;;;-140.75;100.00
77124;BME280;66079;47.646;19.130;2023-04-24T16:27:40;65738.94;;;-140.75;100.00
77124;BME280;66079;47.646;19.130;2023-04-24T16:30:42;65738.94;;;-140.75;100.00
77124;BME280;66079;47.646;19.130;2023-04-24T16:33:45;65738.94;;;-140.75;100.00
77124;BME280;66079;47.646;19.130;2023-04-24T16:36:48;65738.94;;;-140.75;100.00
77124;BME280;66079;47.646;19.130;2023-04-24T16:39:50;65738.94;;;-140.75;100.00
77124;BME280;66079;47.646;19.130;2023-04-24T16:42:56;65738.94;;;-140.75;100.00
77124;BME280;66079;47.646;19.130;2023-04-24T16:45:58;65738.94;;;-140.75;100.00